This is the latest recevied weather packets stored in our database for station/object IN3MWE-10. If no packets are shown the sender has not sent any weather packets the latest 10 day(s).
| Time | Temp. | Humidity | Pressure | Rain* | Wind** | Luminosity | Snow |
|---|---|---|---|---|---|---|---|
| 1777500324 | 13.33° C | 87% | 985.7 hPa | - | - | - | - |
| 1777499424 | 13.33° C | 86% | 985.6 hPa | - | - | - | - |
| 1777498524 | 13.33° C | 86% | 985.5 hPa | - | - | - | - |
| 1777497624 | 13.33° C | 85% | 985.3 hPa | - | - | - | - |
| 1777496724 | 13.33° C | 85% | 985.2 hPa | - | - | - | - |
| 1777495824 | 13.33° C | 85% | 985 hPa | - | - | - | - |
| 1777494924 | 13.33° C | 84% | 985.1 hPa | - | - | - | - |
| 1777494023 | 12.78° C | 85% | 984.9 hPa | - | - | - | - |
| 1777493123 | 12.78° C | 86% | 984.7 hPa | - | - | - | - |
| 1777492223 | 12.78° C | 86% | 984.6 hPa | - | - | - | - |
| 1777491323 | 12.78° C | 85% | 984.4 hPa | - | - | - | - |
| 1777490423 | 12.78° C | 85% | 984.2 hPa | - | - | - | - |
| 1777489523 | 12.78° C | 85% | 984 hPa | - | - | - | - |
| 1777488623 | 12.78° C | 85% | 983.9 hPa | - | - | - | - |
| 1777487723 | 13.33° C | 84% | 983.6 hPa | - | - | - | - |
| 1777486823 | 13.33° C | 84% | 983.5 hPa | - | - | - | - |
| 1777485922 | 13.89° C | 82% | 983.3 hPa | - | - | - | - |
| 1777485022 | 14.44° C | 81% | 983.2 hPa | - | - | - | - |
| 1777484122 | 15° C | 77% | 983.1 hPa | - | - | - | - |
| 1777483222 | 15° C | 78% | 983 hPa | - | - | - | - |
| 1777482322 | 15° C | 77% | 982.9 hPa | - | - | - | - |
| 1777481422 | 15.56° C | 73% | 982.9 hPa | - | - | - | - |
| 1777480522 | 15° C | 75% | 982.9 hPa | - | - | - | - |
| 1777479621 | 15.56° C | 74% | 982.8 hPa | - | - | - | - |
| 1777478721 | 15.56° C | 74% | 982.9 hPa | - | - | - | - |
* Rain since midnight (hover to see other rain measurements)
** Current wind speed in m/s (hover to see current wind gust speed)